createdAt,value
2018-12-14T00:01:15.270Z,101906.27
2018-12-14T00:06:20.949Z,101801.08
2018-12-14T00:11:25.379Z,101898.77
2018-12-14T00:16:30.543Z,101900.57
2018-12-14T00:21:36.435Z,101898.34
2018-12-14T00:26:41.188Z,101898.05
2018-12-14T00:37:07.125Z,101900.06
2018-12-14T00:47:32.603Z,101906.75
2018-12-14T00:52:38.030Z,101913.16
2018-12-14T00:57:44.107Z,101908.04
2018-12-14T01:02:49.510Z,101908.00
2018-12-14T01:07:54.381Z,101905.29
2018-12-14T01:13:01.039Z,101908.80
2018-12-14T01:23:32.796Z,101911.70
2018-12-14T01:28:38.526Z,101919.76
2018-12-14T01:33:44.654Z,101921.02
2018-12-14T01:38:49.562Z,101915.70
2018-12-14T01:43:55.276Z,101914.73
2018-12-14T01:49:02.001Z,101926.62
2018-12-14T01:54:07.100Z,101933.02
2018-12-14T01:59:17.207Z,101924.50
2018-12-14T02:04:26.081Z,101918.02
2018-12-14T02:09:33.065Z,101923.33
2018-12-14T02:14:37.831Z,101922.38
2018-12-14T02:25:14.866Z,101922.18
2018-12-14T02:30:36.015Z,101915.85
2018-12-14T02:35:40.774Z,101915.41
2018-12-14T02:40:45.519Z,101920.20
2018-12-14T02:45:50.532Z,101914.55
2018-12-14T02:50:55.763Z,101913.87
2018-12-14T02:56:00.449Z,101905.74
2018-12-14T03:01:05.768Z,101913.12
2018-12-14T03:06:09.947Z,101914.84
2018-12-14T03:11:14.968Z,101909.55
2018-12-14T03:16:19.808Z,101910.14
2018-12-14T03:21:24.914Z,101911.70
2018-12-14T03:26:30.200Z,101900.95
2018-12-14T03:31:35.208Z,101905.38
2018-12-14T03:42:05.818Z,101909.80
2018-12-14T03:47:10.500Z,101903.63
2018-12-14T03:52:16.015Z,101910.12
2018-12-14T03:57:20.850Z,101912.27
2018-12-14T04:02:25.999Z,101906.22
2018-12-14T04:07:31.259Z,101913.61
2018-12-14T04:12:41.585Z,101902.69
2018-12-14T04:17:43.262Z,101912.41
2018-12-14T04:22:48.067Z,101906.97
2018-12-14T04:27:53.087Z,101910.77
2018-12-14T04:38:20.523Z,101913.56
2018-12-14T04:43:25.023Z,101919.34
2018-12-14T04:48:30.256Z,101911.87
2018-12-14T04:53:37.135Z,101907.59
2018-12-14T04:58:44.221Z,101906.41
2018-12-14T05:03:56.508Z,101927.22
2018-12-14T05:09:03.413Z,101917.95
2018-12-14T05:14:10.451Z,101918.80
2018-12-14T05:24:35.405Z,101910.22
2018-12-14T05:29:41.731Z,101914.27
2018-12-14T05:34:46.487Z,101908.30
2018-12-14T05:39:53.225Z,101905.36
2018-12-14T05:44:58.353Z,101908.84
2018-12-14T05:55:30.316Z,101927.19
2018-12-14T06:00:35.326Z,101924.58
2018-12-14T06:05:41.408Z,101925.52
2018-12-14T06:10:46.718Z,101941.10
2018-12-14T06:15:51.959Z,101940.30
2018-12-14T06:20:57.312Z,101950.64
2018-12-14T06:26:02.942Z,101952.28
2018-12-14T06:31:07.880Z,101959.65
2018-12-14T06:36:12.805Z,101967.60
2018-12-14T06:41:18.008Z,101965.07
2018-12-14T06:46:22.667Z,101966.14
2018-12-14T06:56:56.880Z,101968.97
2018-12-14T07:02:02.816Z,101985.15
2018-12-14T07:07:09.764Z,101987.77
2018-12-14T07:12:14.908Z,101990.86
2018-12-14T07:17:20.835Z,102004.28
2018-12-14T07:22:25.709Z,102005.89
2018-12-14T07:27:31.217Z,102016.98
2018-12-14T07:32:38.067Z,102017.57
2018-12-14T07:37:42.766Z,102026.22
2018-12-14T07:42:47.877Z,102029.52
2018-12-14T07:47:53.845Z,102032.89
2018-12-14T07:53:00.025Z,102029.39
2018-12-14T07:58:04.868Z,102035.27
2018-12-14T08:03:10.007Z,102040.42
2018-12-14T08:13:41.084Z,102053.98
2018-12-14T08:18:45.332Z,102056.73
2018-12-14T08:23:50.285Z,102064.25
2018-12-14T08:28:55.183Z,102067.05
2018-12-14T08:34:00.405Z,102066.16
2018-12-14T08:39:07.160Z,102073.00
2018-12-14T08:44:11.992Z,102079.47
2018-12-14T08:49:16.374Z,102073.23
2018-12-14T08:54:21.795Z,102079.68
2018-12-14T08:59:28.371Z,102079.80
2018-12-14T09:09:55.105Z,102097.00
2018-12-14T09:14:59.922Z,102103.27
2018-12-14T09:20:05.425Z,102103.24
2018-12-14T09:25:11.473Z,102096.91
2018-12-14T09:30:16.863Z,102109.89
2018-12-14T09:35:25.348Z,102113.53
2018-12-14T09:40:33.346Z,102086.77
2018-12-14T09:45:41.420Z,102105.56
2018-12-14T09:50:46.148Z,102116.59
2018-12-14T09:55:51.163Z,102104.80
2018-12-14T10:00:56.848Z,102113.91
2018-12-14T10:06:01.889Z,102113.80
2018-12-14T10:11:07.369Z,102102.94
2018-12-14T10:16:14.130Z,102101.20
2018-12-14T10:21:19.308Z,102100.83
2018-12-14T10:26:24.281Z,102099.60
2018-12-14T10:31:29.811Z,102087.20
2018-12-14T10:36:34.267Z,102087.19
2018-12-14T10:41:39.648Z,102090.64
2018-12-14T10:46:45.221Z,102089.19
2018-12-14T10:51:53.060Z,102079.03
2018-12-14T10:56:58.359Z,102085.73
2018-12-14T11:02:03.176Z,102078.84
2018-12-14T11:07:08.534Z,102080.09
2018-12-14T11:12:14.189Z,102073.97
2018-12-14T11:17:19.494Z,102076.20
2018-12-14T11:22:24.635Z,102070.45
2018-12-14T11:27:29.864Z,102059.54
2018-12-14T11:32:34.938Z,102064.85
2018-12-14T11:37:40.227Z,102061.24
2018-12-14T11:48:05.066Z,102055.32
2018-12-14T11:53:13.215Z,102043.05
2018-12-14T11:58:18.474Z,102056.50
2018-12-14T12:03:23.717Z,102055.02
2018-12-14T12:08:29.944Z,102055.84
2018-12-14T12:13:35.283Z,102052.81
2018-12-14T12:18:41.054Z,102050.55
2018-12-14T12:23:46.535Z,102049.74
2018-12-14T12:28:52.922Z,102058.95
2018-12-14T12:33:57.790Z,102059.05
2018-12-14T12:39:05.837Z,102058.78
2018-12-14T12:44:10.817Z,102055.56
2018-12-14T12:49:15.201Z,102058.41
2018-12-14T12:54:20.159Z,102061.50
2018-12-14T12:59:25.941Z,102058.30
2018-12-14T13:04:30.305Z,102064.20
2018-12-14T13:09:34.853Z,102063.13
2018-12-14T13:14:40.176Z,102060.91
2018-12-14T13:19:45.433Z,102061.98
2018-12-14T13:24:49.802Z,102056.00
2018-12-14T13:35:17.142Z,102064.95
2018-12-14T13:40:21.895Z,102066.94
2018-12-14T13:45:26.801Z,102067.66
2018-12-14T13:50:32.556Z,102066.63
2018-12-14T14:00:41.685Z,102076.84
2018-12-14T14:05:46.906Z,102079.48
2018-12-14T14:10:51.882Z,102090.20
2018-12-14T14:15:57.282Z,102099.26
2018-12-14T14:21:02.330Z,102099.27
2018-12-14T14:26:07.984Z,102110.11
2018-12-14T14:31:12.943Z,102099.38
2018-12-14T14:36:25.683Z,102108.06
2018-12-14T14:41:31.305Z,102121.83
2018-12-14T14:46:36.199Z,102131.83
2018-12-14T14:51:42.588Z,102132.77
2018-12-14T14:56:47.804Z,102132.71
2018-12-14T15:01:53.569Z,102134.78
2018-12-14T15:06:58.429Z,102140.33
2018-12-14T15:12:03.155Z,102148.65
2018-12-14T15:17:09.212Z,102152.95
2018-12-14T15:22:14.098Z,102155.02
2018-12-14T15:27:20.774Z,102159.13
2018-12-14T15:32:25.700Z,102162.28
2018-12-14T15:37:30.381Z,102167.88
2018-12-14T15:42:35.244Z,102168.21
2018-12-14T15:47:40.150Z,102164.72
2018-12-14T15:52:45.316Z,102166.08
2018-12-14T15:57:50.827Z,102175.09
2018-12-14T16:02:56.415Z,102174.36
2018-12-14T16:08:01.177Z,102181.88
2018-12-14T16:13:07.496Z,102178.11
2018-12-14T16:18:12.585Z,102179.91
2018-12-14T16:23:18.045Z,102176.00
2018-12-14T16:28:23.711Z,102176.81
2018-12-14T16:33:28.532Z,102186.55
2018-12-14T16:38:33.644Z,102183.03
2018-12-14T16:43:38.295Z,102180.97
2018-12-14T16:48:42.955Z,102180.40
2018-12-14T16:53:52.842Z,102180.88
2018-12-14T16:58:58.362Z,102183.66
2018-12-14T17:04:03.091Z,102182.81
2018-12-14T17:09:07.911Z,102180.66
2018-12-14T17:14:13.268Z,102176.27
2018-12-14T17:24:44.999Z,102186.13
2018-12-14T17:29:49.686Z,102183.88
2018-12-14T17:34:54.962Z,102188.88
2018-12-14T17:40:00.335Z,102191.82
2018-12-14T17:45:05.758Z,102193.16
2018-12-14T17:50:11.722Z,102193.89
2018-12-14T17:55:17.195Z,102198.19
2018-12-14T18:00:22.233Z,102205.12
2018-12-14T18:05:27.179Z,102201.91
2018-12-14T18:15:52.236Z,102208.66
2018-12-14T18:26:17.282Z,102187.45
2018-12-14T18:36:56.479Z,102227.08
2018-12-14T18:42:02.152Z,102233.31
2018-12-14T18:47:07.679Z,102225.23
2018-12-14T18:52:12.631Z,102233.47
2018-12-14T18:57:17.834Z,102239.51
2018-12-14T19:02:23.278Z,102233.67
2018-12-14T19:07:28.174Z,102253.08
2018-12-14T19:12:34.246Z,102266.79
2018-12-14T19:17:40.505Z,102278.17
2018-12-14T19:22:45.640Z,102281.84
2018-12-14T19:33:24.562Z,102294.91
2018-12-14T19:39:08.734Z,102300.81
2018-12-14T19:44:16.277Z,102306.22
2018-12-14T19:49:23.685Z,102312.42
2018-12-14T19:54:29.168Z,102311.39
2018-12-14T19:59:36.308Z,102315.89
2018-12-14T20:04:41.434Z,102317.69
2018-12-14T20:09:46.945Z,102323.45
2018-12-14T20:21:08.507Z,102326.48
2018-12-14T20:26:12.797Z,102329.28
2018-12-14T20:31:18.021Z,102327.86
2018-12-14T20:36:22.738Z,102320.98
2018-12-14T20:41:27.516Z,102327.20
2018-12-14T20:46:32.354Z,102329.73
2018-12-14T20:51:37.640Z,102324.30
2018-12-14T20:56:42.330Z,102330.14
2018-12-14T21:01:47.658Z,102328.50
2018-12-14T21:06:52.408Z,102318.38
2018-12-14T21:11:57.137Z,102319.68
2018-12-14T21:17:03.077Z,102314.91
2018-12-14T21:22:13.345Z,102313.21
2018-12-14T21:27:18.400Z,102310.19
2018-12-14T21:32:23.318Z,102286.77
2018-12-14T21:42:58.434Z,102317.66
2018-12-14T21:48:17.346Z,102319.80
2018-12-14T21:59:01.582Z,102313.03
2018-12-14T22:04:06.202Z,102307.86
2018-12-14T22:09:10.980Z,102307.09
2018-12-14T22:14:15.080Z,102313.00
2018-12-14T22:19:20.581Z,102304.95
2018-12-14T22:24:26.120Z,102300.41
2018-12-14T22:29:30.813Z,102300.38
2018-12-14T22:34:35.047Z,102295.72
2018-12-14T22:39:40.227Z,102290.70
2018-12-14T22:44:45.305Z,102288.94
2018-12-14T22:49:49.772Z,102291.08
2018-12-14T22:54:54.406Z,102285.34
2018-12-14T23:00:00.071Z,102287.99
2018-12-14T23:05:04.633Z,102286.86
2018-12-14T23:10:10.425Z,102283.45
2018-12-14T23:15:15.636Z,102283.98
2018-12-14T23:20:19.966Z,102276.22
2018-12-14T23:25:26.132Z,102287.67
2018-12-14T23:30:30.471Z,102291.30
2018-12-14T23:35:34.682Z,102291.36
2018-12-14T23:40:41.777Z,102291.20
2018-12-14T23:45:47.217Z,102294.20
2018-12-14T23:50:52.623Z,102296.47
2018-12-14T23:55:58.910Z,102287.36
